sensor_id;sensor_type;location;lat;lon;timestamp;temperature;humidity
51615;DHT22;37695;52.960;6.188;2023-06-26T00:01:27;22.60;99.90
51615;DHT22;37695;52.960;6.188;2023-06-26T00:04:00;22.60;99.90
51615;DHT22;37695;52.960;6.188;2023-06-26T00:06:25;22.60;99.90
51615;DHT22;37695;52.960;6.188;2023-06-26T00:08:52;22.50;99.90
51615;DHT22;37695;52.960;6.188;2023-06-26T00:11:19;22.50;99.90
51615;DHT22;37695;52.960;6.188;2023-06-26T00:13:44;22.50;99.90
51615;DHT22;37695;52.960;6.188;2023-06-26T00:16:10;22.50;99.90
51615;DHT22;37695;52.960;6.188;2023-06-26T00:18:35;22.40;99.90
51615;DHT22;37695;52.960;6.188;2023-06-26T00:21:01;22.40;99.90
51615;DHT22;37695;52.960;6.188;2023-06-26T00:23:26;22.40;99.90
51615;DHT22;37695;52.960;6.188;2023-06-26T00:25:56;22.40;99.90
51615;DHT22;37695;52.960;6.188;2023-06-26T00:28:22;22.30;99.90
51615;DHT22;37695;52.960;6.188;2023-06-26T00:30:47;22.30;99.90
51615;DHT22;37695;52.960;6.188;2023-06-26T00:33:13;22.30;99.90
51615;DHT22;37695;52.960;6.188;2023-06-26T00:35:38;22.30;99.90
51615;DHT22;37695;52.960;6.188;2023-06-26T00:38:04;22.20;99.90
51615;DHT22;37695;52.960;6.188;2023-06-26T00:40:29;22.20;99.90
51615;DHT22;37695;52.960;6.188;2023-06-26T00:42:55;22.20;99.90
51615;DHT22;37695;52.960;6.188;2023-06-26T00:45:21;22.20;99.90
51615;DHT22;37695;52.960;6.188;2023-06-26T00:47:46;22.20;99.90
51615;DHT22;37695;52.960;6.188;2023-06-26T00:50:12;22.20;99.90
51615;DHT22;37695;52.960;6.188;2023-06-26T00:52:39;22.20;99.90
51615;DHT22;37695;52.960;6.188;2023-06-26T00:55:05;22.20;99.90
51615;DHT22;37695;52.960;6.188;2023-06-26T00:57:31;22.20;99.90
51615;DHT22;37695;52.960;6.188;2023-06-26T00:59:57;22.10;99.90
51615;DHT22;37695;52.960;6.188;2023-06-26T01:02:22;22.10;99.90
51615;DHT22;37695;52.960;6.188;2023-06-26T01:04:49;22.10;99.90
51615;DHT22;37695;52.960;6.188;2023-06-26T01:07:16;22.00;99.90
51615;DHT22;37695;52.960;6.188;2023-06-26T01:09:45;22.10;99.90
51615;DHT22;37695;52.960;6.188;2023-06-26T01:12:11;22.00;99.90
51615;DHT22;37695;52.960;6.188;2023-06-26T01:14:37;22.00;99.90
51615;DHT22;37695;52.960;6.188;2023-06-26T01:17:03;22.00;99.90
51615;DHT22;37695;52.960;6.188;2023-06-26T01:19:30;22.00;99.90
51615;DHT22;37695;52.960;6.188;2023-06-26T01:28:24;21.90;99.90
51615;DHT22;37695;52.960;6.188;2023-06-26T01:30:51;21.90;99.90
51615;DHT22;37695;52.960;6.188;2023-06-26T01:33:16;21.90;99.90
51615;DHT22;37695;52.960;6.188;2023-06-26T01:35:42;21.80;99.90
51615;DHT22;37695;52.960;6.188;2023-06-26T01:38:12;21.80;99.90
51615;DHT22;37695;52.960;6.188;2023-06-26T01:40:38;21.80;99.90
51615;DHT22;37695;52.960;6.188;2023-06-26T01:43:06;21.80;99.90
51615;DHT22;37695;52.960;6.188;2023-06-26T01:45:32;21.80;99.90
51615;DHT22;37695;52.960;6.188;2023-06-26T01:48:00;21.80;99.90
51615;DHT22;37695;52.960;6.188;2023-06-26T01:50:28;21.80;99.90
51615;DHT22;37695;52.960;6.188;2023-06-26T01:53:12;21.80;99.90
51615;DHT22;37695;52.960;6.188;2023-06-26T01:55:51;21.80;99.90
51615;DHT22;37695;52.960;6.188;2023-06-26T01:58:19;21.80;99.90
51615;DHT22;37695;52.960;6.188;2023-06-26T02:00:48;21.70;99.90
51615;DHT22;37695;52.960;6.188;2023-06-26T02:03:13;21.70;99.90
51615;DHT22;37695;52.960;6.188;2023-06-26T02:05:39;21.70;99.90
51615;DHT22;37695;52.960;6.188;2023-06-26T02:08:05;21.70;99.90
51615;DHT22;37695;52.960;6.188;2023-06-26T02:10:31;21.70;99.90
51615;DHT22;37695;52.960;6.188;2023-06-26T02:12:56;21.70;99.90
51615;DHT22;37695;52.960;6.188;2023-06-26T02:15:22;21.60;99.90
51615;DHT22;37695;52.960;6.188;2023-06-26T02:17:47;21.60;99.90
51615;DHT22;37695;52.960;6.188;2023-06-26T02:20:14;21.60;99.90
51615;DHT22;37695;52.960;6.188;2023-06-26T02:22:41;21.60;99.90
51615;DHT22;37695;52.960;6.188;2023-06-26T02:25:07;21.60;99.90
51615;DHT22;37695;52.960;6.188;2023-06-26T02:27:32;21.60;99.90
51615;DHT22;37695;52.960;6.188;2023-06-26T02:29:58;21.50;99.90
51615;DHT22;37695;52.960;6.188;2023-06-26T02:32:23;21.50;99.90
51615;DHT22;37695;52.960;6.188;2023-06-26T02:34:49;21.60;99.90
51615;DHT22;37695;52.960;6.188;2023-06-26T02:37:17;21.40;99.90
51615;DHT22;37695;52.960;6.188;2023-06-26T02:39:43;21.40;99.90
51615;DHT22;37695;52.960;6.188;2023-06-26T02:42:08;21.40;99.90
51615;DHT22;37695;52.960;6.188;2023-06-26T02:44:34;21.40;99.90
51615;DHT22;37695;52.960;6.188;2023-06-26T02:46:59;21.40;99.90
51615;DHT22;37695;52.960;6.188;2023-06-26T02:49:25;21.40;99.90
51615;DHT22;37695;52.960;6.188;2023-06-26T02:51:50;21.40;99.90
51615;DHT22;37695;52.960;6.188;2023-06-26T02:54:16;21.40;99.90
51615;DHT22;37695;52.960;6.188;2023-06-26T02:56:41;21.40;99.90
51615;DHT22;37695;52.960;6.188;2023-06-26T02:59:07;21.40;99.90
51615;DHT22;37695;52.960;6.188;2023-06-26T03:01:33;21.40;99.90
51615;DHT22;37695;52.960;6.188;2023-06-26T03:03:58;21.40;99.90
51615;DHT22;37695;52.960;6.188;2023-06-26T03:06:26;21.40;99.90
51615;DHT22;37695;52.960;6.188;2023-06-26T03:08:53;21.40;99.90
51615;DHT22;37695;52.960;6.188;2023-06-26T03:11:19;21.50;99.90
51615;DHT22;37695;52.960;6.188;2023-06-26T03:13:45;21.40;99.90
51615;DHT22;37695;52.960;6.188;2023-06-26T03:16:10;21.40;99.90
51615;DHT22;37695;52.960;6.188;2023-06-26T03:18:36;21.40;99.90
51615;DHT22;37695;52.960;6.188;2023-06-26T03:21:02;21.40;99.90
51615;DHT22;37695;52.960;6.188;2023-06-26T03:23:27;21.40;99.90
51615;DHT22;37695;52.960;6.188;2023-06-26T03:25:53;21.30;99.90
51615;DHT22;37695;52.960;6.188;2023-06-26T03:28:19;21.30;99.90
51615;DHT22;37695;52.960;6.188;2023-06-26T03:30:44;21.30;99.90
51615;DHT22;37695;52.960;6.188;2023-06-26T03:33:10;21.30;99.90
51615;DHT22;37695;52.960;6.188;2023-06-26T03:35:36;21.40;99.90
51615;DHT22;37695;52.960;6.188;2023-06-26T03:38:03;21.30;99.90
51615;DHT22;37695;52.960;6.188;2023-06-26T03:40:28;21.40;99.90
51615;DHT22;37695;52.960;6.188;2023-06-26T03:42:54;21.30;99.90
51615;DHT22;37695;52.960;6.188;2023-06-26T03:45:19;21.30;99.90
51615;DHT22;37695;52.960;6.188;2023-06-26T03:47:45;21.40;99.90
51615;DHT22;37695;52.960;6.188;2023-06-26T03:50:17;21.30;99.90
51615;DHT22;37695;52.960;6.188;2023-06-26T03:52:43;21.30;99.90
51615;DHT22;37695;52.960;6.188;2023-06-26T03:55:08;21.30;99.90
51615;DHT22;37695;52.960;6.188;2023-06-26T03:57:34;21.30;99.90
51615;DHT22;37695;52.960;6.188;2023-06-26T04:00:00;21.30;99.90
51615;DHT22;37695;52.960;6.188;2023-06-26T04:02:25;21.20;99.90
51615;DHT22;37695;52.960;6.188;2023-06-26T04:04:51;21.20;99.90
51615;DHT22;37695;52.960;6.188;2023-06-26T04:07:18;21.20;99.90
51615;DHT22;37695;52.960;6.188;2023-06-26T04:09:44;21.20;99.90
51615;DHT22;37695;52.960;6.188;2023-06-26T04:12:09;21.20;99.90
51615;DHT22;37695;52.960;6.188;2023-06-26T04:14:35;21.10;99.90
51615;DHT22;37695;52.960;6.188;2023-06-26T04:17:01;21.10;99.90
51615;DHT22;37695;52.960;6.188;2023-06-26T04:19:29;21.10;99.90
51615;DHT22;37695;52.960;6.188;2023-06-26T04:21:54;21.10;99.90
51615;DHT22;37695;52.960;6.188;2023-06-26T04:24:20;21.10;99.90
51615;DHT22;37695;52.960;6.188;2023-06-26T04:26:46;21.00;99.90
51615;DHT22;37695;52.960;6.188;2023-06-26T04:29:11;20.90;99.90
51615;DHT22;37695;52.960;6.188;2023-06-26T04:31:37;20.90;99.90
51615;DHT22;37695;52.960;6.188;2023-06-26T04:34:04;20.90;99.90
51615;DHT22;37695;52.960;6.188;2023-06-26T04:36:29;20.90;99.90
51615;DHT22;37695;52.960;6.188;2023-06-26T04:38:56;20.90;99.90
51615;DHT22;37695;52.960;6.188;2023-06-26T04:41:22;20.80;99.90
51615;DHT22;37695;52.960;6.188;2023-06-26T04:43:48;20.80;99.90
51615;DHT22;37695;52.960;6.188;2023-06-26T04:46:13;20.80;99.90
51615;DHT22;37695;52.960;6.188;2023-06-26T04:48:39;20.70;99.90
51615;DHT22;37695;52.960;6.188;2023-06-26T04:51:04;20.70;99.90
51615;DHT22;37695;52.960;6.188;2023-06-26T04:53:30;20.70;99.90
51615;DHT22;37695;52.960;6.188;2023-06-26T04:55:55;20.60;99.90
51615;DHT22;37695;52.960;6.188;2023-06-26T04:58:21;20.50;99.90
51615;DHT22;37695;52.960;6.188;2023-06-26T05:00:47;20.50;99.90
51615;DHT22;37695;52.960;6.188;2023-06-26T05:03:14;20.50;99.90
51615;DHT22;37695;52.960;6.188;2023-06-26T05:05:39;20.50;99.90
51615;DHT22;37695;52.960;6.188;2023-06-26T05:08:15;20.40;99.90
51615;DHT22;37695;52.960;6.188;2023-06-26T05:10:41;20.40;99.90
51615;DHT22;37695;52.960;6.188;2023-06-26T05:13:06;20.40;99.90
51615;DHT22;37695;52.960;6.188;2023-06-26T05:15:32;20.40;99.90
51615;DHT22;37695;52.960;6.188;2023-06-26T05:17:57;20.40;99.90
51615;DHT22;37695;52.960;6.188;2023-06-26T05:20:23;20.40;99.90
51615;DHT22;37695;52.960;6.188;2023-06-26T05:22:49;20.40;99.90
51615;DHT22;37695;52.960;6.188;2023-06-26T05:25:15;20.40;99.90
51615;DHT22;37695;52.960;6.188;2023-06-26T05:27:41;20.40;99.90
51615;DHT22;37695;52.960;6.188;2023-06-26T05:30:07;20.40;99.90
51615;DHT22;37695;52.960;6.188;2023-06-26T05:32:34;20.40;99.90
51615;DHT22;37695;52.960;6.188;2023-06-26T05:35:02;20.40;99.90
51615;DHT22;37695;52.960;6.188;2023-06-26T05:37:29;20.30;99.90
51615;DHT22;37695;52.960;6.188;2023-06-26T05:39:56;20.20;99.90
51615;DHT22;37695;52.960;6.188;2023-06-26T05:42:22;20.30;99.90
51615;DHT22;37695;52.960;6.188;2023-06-26T05:44:47;20.20;99.90
51615;DHT22;37695;52.960;6.188;2023-06-26T05:47:13;20.20;99.90
51615;DHT22;37695;52.960;6.188;2023-06-26T05:49:39;20.20;99.90
51615;DHT22;37695;52.960;6.188;2023-06-26T05:52:04;20.20;99.90
51615;DHT22;37695;52.960;6.188;2023-06-26T05:54:30;20.20;99.90
51615;DHT22;37695;52.960;6.188;2023-06-26T05:56:57;20.20;99.90
51615;DHT22;37695;52.960;6.188;2023-06-26T05:59:26;20.20;99.90
51615;DHT22;37695;52.960;6.188;2023-06-26T06:01:52;20.30;99.90
51615;DHT22;37695;52.960;6.188;2023-06-26T06:04:18;20.40;99.90
51615;DHT22;37695;52.960;6.188;2023-06-26T06:06:43;20.40;99.90
51615;DHT22;37695;52.960;6.188;2023-06-26T06:09:09;20.40;99.90
51615;DHT22;37695;52.960;6.188;2023-06-26T06:11:34;20.50;99.90
51615;DHT22;37695;52.960;6.188;2023-06-26T06:14:00;20.50;99.90
51615;DHT22;37695;52.960;6.188;2023-06-26T06:16:26;20.70;99.90
51615;DHT22;37695;52.960;6.188;2023-06-26T06:18:54;21.20;99.90
51615;DHT22;37695;52.960;6.188;2023-06-26T06:21:19;20.90;99.90
51615;DHT22;37695;52.960;6.188;2023-06-26T06:23:45;20.90;99.90
51615;DHT22;37695;52.960;6.188;2023-06-26T06:26:11;21.00;99.90
51615;DHT22;37695;52.960;6.188;2023-06-26T06:28:38;21.10;99.90
51615;DHT22;37695;52.960;6.188;2023-06-26T06:31:03;21.10;99.90
51615;DHT22;37695;52.960;6.188;2023-06-26T06:33:29;21.00;99.90
51615;DHT22;37695;52.960;6.188;2023-06-26T06:35:54;21.00;99.90
51615;DHT22;37695;52.960;6.188;2023-06-26T06:38:20;21.00;99.90
51615;DHT22;37695;52.960;6.188;2023-06-26T06:40:45;21.10;99.90
51615;DHT22;37695;52.960;6.188;2023-06-26T06:43:11;21.20;99.90
51615;DHT22;37695;52.960;6.188;2023-06-26T06:45:36;21.30;99.90
51615;DHT22;37695;52.960;6.188;2023-06-26T06:48:04;21.20;99.90
51615;DHT22;37695;52.960;6.188;2023-06-26T06:50:29;21.10;99.90
51615;DHT22;37695;52.960;6.188;2023-06-26T06:52:55;21.10;99.90
51615;DHT22;37695;52.960;6.188;2023-06-26T06:55:21;21.20;99.90
51615;DHT22;37695;52.960;6.188;2023-06-26T06:57:46;21.30;99.90
51615;DHT22;37695;52.960;6.188;2023-06-26T07:00:12;21.50;99.90
51615;DHT22;37695;52.960;6.188;2023-06-26T07:02:41;21.50;99.90
51615;DHT22;37695;52.960;6.188;2023-06-26T07:05:07;21.50;99.90
51615;DHT22;37695;52.960;6.188;2023-06-26T07:07:34;21.60;99.90
51615;DHT22;37695;52.960;6.188;2023-06-26T07:10:04;21.60;99.90
51615;DHT22;37695;52.960;6.188;2023-06-26T07:12:30;21.60;99.90
51615;DHT22;37695;52.960;6.188;2023-06-26T07:14:56;21.70;99.90
51615;DHT22;37695;52.960;6.188;2023-06-26T07:17:22;21.80;99.90
51615;DHT22;37695;52.960;6.188;2023-06-26T07:19:48;21.90;99.90
51615;DHT22;37695;52.960;6.188;2023-06-26T07:22:13;21.90;99.90
51615;DHT22;37695;52.960;6.188;2023-06-26T07:24:39;21.90;99.90
51615;DHT22;37695;52.960;6.188;2023-06-26T07:27:05;22.00;99.90
51615;DHT22;37695;52.960;6.188;2023-06-26T07:29:30;22.00;99.90
51615;DHT22;37695;52.960;6.188;2023-06-26T07:31:56;22.10;99.90
51615;DHT22;37695;52.960;6.188;2023-06-26T07:34:21;22.10;99.90
51615;DHT22;37695;52.960;6.188;2023-06-26T07:36:47;22.20;99.90
51615;DHT22;37695;52.960;6.188;2023-06-26T07:39:12;22.10;99.90
51615;DHT22;37695;52.960;6.188;2023-06-26T07:41:38;22.10;99.90
51615;DHT22;37695;52.960;6.188;2023-06-26T07:44:03;21.90;99.90
51615;DHT22;37695;52.960;6.188;2023-06-26T07:46:29;21.80;99.90
51615;DHT22;37695;52.960;6.188;2023-06-26T07:48:54;22.00;99.90
51615;DHT22;37695;52.960;6.188;2023-06-26T07:51:20;22.00;99.90
51615;DHT22;37695;52.960;6.188;2023-06-26T07:53:46;22.10;99.90
51615;DHT22;37695;52.960;6.188;2023-06-26T07:56:12;22.10;99.90
51615;DHT22;37695;52.960;6.188;2023-06-26T07:58:37;22.10;99.90
51615;DHT22;37695;52.960;6.188;2023-06-26T08:01:03;22.20;99.90
51615;DHT22;37695;52.960;6.188;2023-06-26T08:03:29;22.20;99.90
51615;DHT22;37695;52.960;6.188;2023-06-26T08:05:55;22.00;99.90
51615;DHT22;37695;52.960;6.188;2023-06-26T08:08:20;21.80;99.90
51615;DHT22;37695;52.960;6.188;2023-06-26T08:10:46;21.90;99.90
51615;DHT22;37695;52.960;6.188;2023-06-26T08:13:12;22.00;99.90
51615;DHT22;37695;52.960;6.188;2023-06-26T08:15:37;22.30;99.90
51615;DHT22;37695;52.960;6.188;2023-06-26T08:18:03;22.20;99.90
51615;DHT22;37695;52.960;6.188;2023-06-26T08:20:28;22.00;99.90
51615;DHT22;37695;52.960;6.188;2023-06-26T08:22:55;22.00;99.90
51615;DHT22;37695;52.960;6.188;2023-06-26T08:25:20;22.00;99.90
51615;DHT22;37695;52.960;6.188;2023-06-26T08:27:46;22.00;99.90
51615;DHT22;37695;52.960;6.188;2023-06-26T08:30:12;22.10;99.90
51615;DHT22;37695;52.960;6.188;2023-06-26T08:32:39;22.20;99.90
51615;DHT22;37695;52.960;6.188;2023-06-26T08:35:06;22.20;99.90
51615;DHT22;37695;52.960;6.188;2023-06-26T08:37:31;22.20;99.90
51615;DHT22;37695;52.960;6.188;2023-06-26T08:39:59;22.30;99.90
51615;DHT22;37695;52.960;6.188;2023-06-26T08:42:25;22.30;99.90
51615;DHT22;37695;52.960;6.188;2023-06-26T08:44:50;22.50;99.90
51615;DHT22;37695;52.960;6.188;2023-06-26T08:47:16;22.60;99.90
51615;DHT22;37695;52.960;6.188;2023-06-26T08:52:30;22.20;99.90
51615;DHT22;37695;52.960;6.188;2023-06-26T08:54:58;22.10;99.90
51615;DHT22;37695;52.960;6.188;2023-06-26T08:57:25;22.30;99.90
51615;DHT22;37695;52.960;6.188;2023-06-26T08:59:52;22.50;99.90
51615;DHT22;37695;52.960;6.188;2023-06-26T09:02:18;22.30;99.90
51615;DHT22;37695;52.960;6.188;2023-06-26T09:04:47;22.10;99.90
51615;DHT22;37695;52.960;6.188;2023-06-26T09:07:13;22.20;99.90
51615;DHT22;37695;52.960;6.188;2023-06-26T09:09:39;22.60;99.90
51615;DHT22;37695;52.960;6.188;2023-06-26T09:12:04;23.00;99.90
51615;DHT22;37695;52.960;6.188;2023-06-26T09:14:30;23.00;99.90
51615;DHT22;37695;52.960;6.188;2023-06-26T09:16:56;22.90;99.90
51615;DHT22;37695;52.960;6.188;2023-06-26T09:19:21;22.70;99.90
51615;DHT22;37695;52.960;6.188;2023-06-26T09:21:50;22.80;99.90
51615;DHT22;37695;52.960;6.188;2023-06-26T09:24:16;22.90;99.90
51615;DHT22;37695;52.960;6.188;2023-06-26T09:26:42;23.10;99.90
51615;DHT22;37695;52.960;6.188;2023-06-26T09:29:09;23.30;99.90
51615;DHT22;37695;52.960;6.188;2023-06-26T09:31:39;23.40;99.90
51615;DHT22;37695;52.960;6.188;2023-06-26T09:34:05;23.70;99.90
51615;DHT22;37695;52.960;6.188;2023-06-26T09:36:31;24.00;99.90
51615;DHT22;37695;52.960;6.188;2023-06-26T09:39:02;24.30;99.90
51615;DHT22;37695;52.960;6.188;2023-06-26T09:41:30;23.90;99.90
51615;DHT22;37695;52.960;6.188;2023-06-26T09:43:58;23.20;99.90
51615;DHT22;37695;52.960;6.188;2023-06-26T09:46:27;22.90;99.90
51615;DHT22;37695;52.960;6.188;2023-06-26T09:49:12;22.60;99.90
51615;DHT22;37695;52.960;6.188;2023-06-26T09:51:39;22.50;99.90
51615;DHT22;37695;52.960;6.188;2023-06-26T09:54:06;22.70;99.90
51615;DHT22;37695;52.960;6.188;2023-06-26T09:56:32;23.00;99.90
51615;DHT22;37695;52.960;6.188;2023-06-26T09:59:03;23.30;99.90
51615;DHT22;37695;52.960;6.188;2023-06-26T10:01:30;23.50;99.90
51615;DHT22;37695;52.960;6.188;2023-06-26T10:03:56;23.50;99.90
51615;DHT22;37695;52.960;6.188;2023-06-26T10:06:28;23.60;99.30
51615;DHT22;37695;52.960;6.188;2023-06-26T10:08:56;23.30;98.90
51615;DHT22;37695;52.960;6.188;2023-06-26T10:11:25;23.50;99.70
51615;DHT22;37695;52.960;6.188;2023-06-26T10:13:55;23.70;99.80
51615;DHT22;37695;52.960;6.188;2023-06-26T10:16:26;23.90;99.30
51615;DHT22;37695;52.960;6.188;2023-06-26T10:18:53;24.10;98.80
51615;DHT22;37695;52.960;6.188;2023-06-26T10:21:22;24.30;98.30
51615;DHT22;37695;52.960;6.188;2023-06-26T10:23:49;24.00;98.30
51615;DHT22;37695;52.960;6.188;2023-06-26T10:26:16;23.70;98.90
51615;DHT22;37695;52.960;6.188;2023-06-26T10:28:44;23.70;99.00
51615;DHT22;37695;52.960;6.188;2023-06-26T10:31:13;24.10;99.50
51615;DHT22;37695;52.960;6.188;2023-06-26T10:33:39;24.30;98.90
51615;DHT22;37695;52.960;6.188;2023-06-26T10:36:15;24.20;98.70
51615;DHT22;37695;52.960;6.188;2023-06-26T10:38:51;23.90;98.70
51615;DHT22;37695;52.960;6.188;2023-06-26T10:41:22;23.40;99.00
51615;DHT22;37695;52.960;6.188;2023-06-26T10:44:06;22.80;99.80
51615;DHT22;37695;52.960;6.188;2023-06-26T10:46:47;22.60;99.90
51615;DHT22;37695;52.960;6.188;2023-06-26T10:49:13;22.70;99.90
51615;DHT22;37695;52.960;6.188;2023-06-26T10:51:49;23.30;99.90
51615;DHT22;37695;52.960;6.188;2023-06-26T10:54:19;23.50;99.10
51615;DHT22;37695;52.960;6.188;2023-06-26T10:56:47;23.30;98.50
51615;DHT22;37695;52.960;6.188;2023-06-26T10:59:20;23.80;98.30
51615;DHT22;37695;52.960;6.188;2023-06-26T11:01:54;24.00;98.30
51615;DHT22;37695;52.960;6.188;2023-06-26T11:04:35;24.40;98.50
51615;DHT22;37695;52.960;6.188;2023-06-26T11:07:24;24.50;96.70
51615;DHT22;37695;52.960;6.188;2023-06-26T11:09:54;24.50;96.30
51615;DHT22;37695;52.960;6.188;2023-06-26T11:12:45;24.40;96.90
51615;DHT22;37695;52.960;6.188;2023-06-26T11:15:17;24.60;95.50
51615;DHT22;37695;52.960;6.188;2023-06-26T11:17:44;24.30;96.90
51615;DHT22;37695;52.960;6.188;2023-06-26T11:20:12;24.40;97.30
51615;DHT22;37695;52.960;6.188;2023-06-26T11:22:39;24.70;96.90
51615;DHT22;37695;52.960;6.188;2023-06-26T11:25:06;24.60;95.90
51615;DHT22;37695;52.960;6.188;2023-06-26T11:27:38;24.40;96.10
51615;DHT22;37695;52.960;6.188;2023-06-26T11:30:05;24.50;96.00
51615;DHT22;37695;52.960;6.188;2023-06-26T11:32:31;24.60;96.40
51615;DHT22;37695;52.960;6.188;2023-06-26T11:34:58;24.60;95.60
51615;DHT22;37695;52.960;6.188;2023-06-26T11:37:24;24.80;95.70
51615;DHT22;37695;52.960;6.188;2023-06-26T11:39:50;24.90;95.90
51615;DHT22;37695;52.960;6.188;2023-06-26T11:42:17;24.20;95.00
51615;DHT22;37695;52.960;6.188;2023-06-26T11:44:43;23.90;95.20
51615;DHT22;37695;52.960;6.188;2023-06-26T11:47:13;23.40;95.10
51615;DHT22;37695;52.960;6.188;2023-06-26T11:49:45;23.00;95.40
51615;DHT22;37695;52.960;6.188;2023-06-26T11:52:12;23.10;95.20
51615;DHT22;37695;52.960;6.188;2023-06-26T11:54:37;23.20;95.20
51615;DHT22;37695;52.960;6.188;2023-06-26T11:57:04;23.30;95.00
51615;DHT22;37695;52.960;6.188;2023-06-26T11:59:38;23.10;94.60
51615;DHT22;37695;52.960;6.188;2023-06-26T12:04:32;23.00;95.80
51615;DHT22;37695;52.960;6.188;2023-06-26T12:06:59;22.90;95.80
51615;DHT22;37695;52.960;6.188;2023-06-26T12:09:26;22.60;96.00
51615;DHT22;37695;52.960;6.188;2023-06-26T12:11:54;22.30;95.80
51615;DHT22;37695;52.960;6.188;2023-06-26T12:14:20;22.20;96.60
51615;DHT22;37695;52.960;6.188;2023-06-26T12:16:47;22.30;96.90
51615;DHT22;37695;52.960;6.188;2023-06-26T12:19:13;22.40;96.60
51615;DHT22;37695;52.960;6.188;2023-06-26T12:24:19;22.30;96.50
51615;DHT22;37695;52.960;6.188;2023-06-26T12:26:46;22.60;96.90
51615;DHT22;37695;52.960;6.188;2023-06-26T12:29:14;22.60;96.40
51615;DHT22;37695;52.960;6.188;2023-06-26T12:31:44;22.80;96.60
51615;DHT22;37695;52.960;6.188;2023-06-26T12:34:14;22.70;97.10
51615;DHT22;37695;52.960;6.188;2023-06-26T12:36:48;22.80;97.10
51615;DHT22;37695;52.960;6.188;2023-06-26T12:39:19;23.10;96.50
51615;DHT22;37695;52.960;6.188;2023-06-26T12:41:52;23.00;96.10
51615;DHT22;37695;52.960;6.188;2023-06-26T12:44:25;23.00;96.20
51615;DHT22;37695;52.960;6.188;2023-06-26T12:46:56;22.90;96.40
51615;DHT22;37695;52.960;6.188;2023-06-26T12:49:36;22.80;96.60
51615;DHT22;37695;52.960;6.188;2023-06-26T12:52:04;22.60;96.60
51615;DHT22;37695;52.960;6.188;2023-06-26T12:54:30;22.50;96.40
51615;DHT22;37695;52.960;6.188;2023-06-26T12:56:57;22.40;96.50
51615;DHT22;37695;52.960;6.188;2023-06-26T12:59:23;22.30;96.80
51615;DHT22;37695;52.960;6.188;2023-06-26T13:01:49;22.40;97.30
51615;DHT22;37695;52.960;6.188;2023-06-26T13:04:15;22.50;97.30
51615;DHT22;37695;52.960;6.188;2023-06-26T13:06:41;22.50;97.50
51615;DHT22;37695;52.960;6.188;2023-06-26T13:09:06;22.60;97.60
51615;DHT22;37695;52.960;6.188;2023-06-26T13:11:33;22.80;97.50
51615;DHT22;37695;52.960;6.188;2023-06-26T13:13:59;22.70;97.40
51615;DHT22;37695;52.960;6.188;2023-06-26T13:16:25;22.60;97.40
51615;DHT22;37695;52.960;6.188;2023-06-26T13:18:50;22.60;97.50
51615;DHT22;37695;52.960;6.188;2023-06-26T13:21:16;22.50;97.80
51615;DHT22;37695;52.960;6.188;2023-06-26T13:23:43;22.30;97.70
51615;DHT22;37695;52.960;6.188;2023-06-26T13:26:09;22.40;98.50
51615;DHT22;37695;52.960;6.188;2023-06-26T13:28:36;22.50;98.70
51615;DHT22;37695;52.960;6.188;2023-06-26T13:31:02;22.40;98.40
51615;DHT22;37695;52.960;6.188;2023-06-26T13:33:28;22.30;98.30
51615;DHT22;37695;52.960;6.188;2023-06-26T13:35:53;22.30;98.30
51615;DHT22;37695;52.960;6.188;2023-06-26T13:38:20;22.40;97.90
51615;DHT22;37695;52.960;6.188;2023-06-26T13:40:53;22.30;97.70
51615;DHT22;37695;52.960;6.188;2023-06-26T13:43:21;22.40;97.60
51615;DHT22;37695;52.960;6.188;2023-06-26T13:45:47;22.60;97.50
51615;DHT22;37695;52.960;6.188;2023-06-26T13:48:12;22.90;97.70
51615;DHT22;37695;52.960;6.188;2023-06-26T13:50:38;23.10;96.90
51615;DHT22;37695;52.960;6.188;2023-06-26T13:53:04;23.20;97.00
51615;DHT22;37695;52.960;6.188;2023-06-26T13:55:29;23.00;96.40
51615;DHT22;37695;52.960;6.188;2023-06-26T13:57:56;23.10;96.70
51615;DHT22;37695;52.960;6.188;2023-06-26T14:00:21;23.20;96.20
51615;DHT22;37695;52.960;6.188;2023-06-26T14:02:48;23.30;96.20
51615;DHT22;37695;52.960;6.188;2023-06-26T14:05:13;23.20;96.30
51615;DHT22;37695;52.960;6.188;2023-06-26T14:07:39;23.00;96.60
51615;DHT22;37695;52.960;6.188;2023-06-26T14:10:05;22.80;96.50
51615;DHT22;37695;52.960;6.188;2023-06-26T14:12:32;22.50;96.80
51615;DHT22;37695;52.960;6.188;2023-06-26T14:14:58;22.20;97.20
51615;DHT22;37695;52.960;6.188;2023-06-26T14:17:24;22.20;97.70
51615;DHT22;37695;52.960;6.188;2023-06-26T14:19:54;22.30;97.80
51615;DHT22;37695;52.960;6.188;2023-06-26T14:22:20;22.50;97.70
51615;DHT22;37695;52.960;6.188;2023-06-26T14:24:46;22.60;97.20
51615;DHT22;37695;52.960;6.188;2023-06-26T14:27:11;22.80;97.10
51615;DHT22;37695;52.960;6.188;2023-06-26T14:29:37;22.80;96.80
51615;DHT22;37695;52.960;6.188;2023-06-26T14:32:03;22.60;96.90
51615;DHT22;37695;52.960;6.188;2023-06-26T14:34:29;22.40;96.60
51615;DHT22;37695;52.960;6.188;2023-06-26T14:36:55;22.50;96.90
51615;DHT22;37695;52.960;6.188;2023-06-26T14:39:20;22.70;97.30
51615;DHT22;37695;52.960;6.188;2023-06-26T14:41:46;22.80;97.00
51615;DHT22;37695;52.960;6.188;2023-06-26T14:44:15;22.40;96.50
51615;DHT22;37695;52.960;6.188;2023-06-26T14:46:41;22.40;96.90
51615;DHT22;37695;52.960;6.188;2023-06-26T14:49:07;22.30;96.70
51615;DHT22;37695;52.960;6.188;2023-06-26T14:51:33;22.30;96.70
51615;DHT22;37695;52.960;6.188;2023-06-26T14:53:59;22.20;96.90
51615;DHT22;37695;52.960;6.188;2023-06-26T14:56:24;21.90;97.30
51615;DHT22;37695;52.960;6.188;2023-06-26T14:58:50;21.90;97.80
51615;DHT22;37695;52.960;6.188;2023-06-26T15:01:19;21.70;98.00
51615;DHT22;37695;52.960;6.188;2023-06-26T15:03:48;21.60;98.20
51615;DHT22;37695;52.960;6.188;2023-06-26T15:06:13;21.60;98.80
51615;DHT22;37695;52.960;6.188;2023-06-26T15:08:39;21.50;99.10
51615;DHT22;37695;52.960;6.188;2023-06-26T15:11:05;21.60;99.30
51615;DHT22;37695;52.960;6.188;2023-06-26T15:13:30;21.70;98.80
51615;DHT22;37695;52.960;6.188;2023-06-26T15:15:56;21.90;98.10
51615;DHT22;37695;52.960;6.188;2023-06-26T15:18:21;21.90;97.60
51615;DHT22;37695;52.960;6.188;2023-06-26T15:20:47;21.90;97.40
51615;DHT22;37695;52.960;6.188;2023-06-26T15:23:12;22.00;97.60
51615;DHT22;37695;52.960;6.188;2023-06-26T15:25:38;22.10;97.40
51615;DHT22;37695;52.960;6.188;2023-06-26T15:28:05;22.20;97.00
51615;DHT22;37695;52.960;6.188;2023-06-26T15:30:31;22.20;96.40
51615;DHT22;37695;52.960;6.188;2023-06-26T15:32:56;22.20;96.30
51615;DHT22;37695;52.960;6.188;2023-06-26T15:35:22;22.10;96.50
51615;DHT22;37695;52.960;6.188;2023-06-26T15:37:48;22.10;96.60
51615;DHT22;37695;52.960;6.188;2023-06-26T15:40:15;22.10;96.20
51615;DHT22;37695;52.960;6.188;2023-06-26T15:42:48;22.10;95.90